createdAt,value
2023-04-18T00:00:28.501Z,94.61
2023-04-18T00:02:34.247Z,95.28
2023-04-18T00:04:37.439Z,94.46
2023-04-18T00:06:40.698Z,94.73
2023-04-18T00:08:43.722Z,96.33
2023-04-18T00:10:46.941Z,95.25
2023-04-18T00:12:49.836Z,94.24
2023-04-18T00:14:52.691Z,94.92
2023-04-18T00:16:56.201Z,95.09
2023-04-18T00:19:02.596Z,96.22
2023-04-18T00:21:06.221Z,94.80
2023-04-18T00:23:09.922Z,95.50
2023-04-18T00:25:14.117Z,95.85
2023-04-18T00:27:17.092Z,95.09
2023-04-18T00:29:20.056Z,94.51
2023-04-18T00:31:23.371Z,95.16
2023-04-18T00:33:26.936Z,94.48
2023-04-18T00:35:32.312Z,95.39
2023-04-18T00:37:35.622Z,95.42
2023-04-18T00:39:38.457Z,95.71
2023-04-18T00:41:41.448Z,95.84
2023-04-18T00:43:44.782Z,95.08
2023-04-18T00:45:47.724Z,95.92
2023-04-18T00:47:50.694Z,94.27
2023-04-18T00:49:54.032Z,94.04
2023-04-18T00:51:59.602Z,95.89
2023-04-18T00:54:04.017Z,94.72
2023-04-18T00:56:07.932Z,95.36
2023-04-18T00:58:11.051Z,94.79
2023-04-18T01:00:15.436Z,95.95
2023-04-18T01:02:18.344Z,94.96
2023-04-18T01:04:21.448Z,95.18
2023-04-18T01:06:24.841Z,95.20
2023-04-18T01:08:29.314Z,96.44
2023-04-18T01:10:34.441Z,96.07
2023-04-18T01:12:38.012Z,95.53
2023-04-18T01:14:43.139Z,95.83
2023-04-18T01:16:47.673Z,94.69
2023-04-18T01:18:50.633Z,96.20
2023-04-18T01:20:57.287Z,94.64
2023-04-18T01:23:00.562Z,95.07
2023-04-18T01:25:09.852Z,94.57
2023-04-18T01:27:13.879Z,94.22
2023-04-18T01:29:16.788Z,95.52
2023-04-18T01:31:19.969Z,95.51
2023-04-18T01:33:23.251Z,94.88
2023-04-18T01:35:26.272Z,94.25
2023-04-18T01:37:32.901Z,95.92
2023-04-18T01:39:36.652Z,94.51
2023-04-18T01:41:42.550Z,95.29
2023-04-18T01:43:46.472Z,94.38
2023-04-18T01:45:49.282Z,96.35
2023-04-18T01:47:52.256Z,94.55
2023-04-18T01:49:55.733Z,94.42
2023-04-18T01:51:58.668Z,96.07
2023-04-18T01:54:01.569Z,95.52
2023-04-18T01:56:05.281Z,94.70
2023-04-18T01:58:09.612Z,95.92
2023-04-18T02:00:13.921Z,94.87
2023-04-18T02:02:19.632Z,95.16
2023-04-18T02:04:22.783Z,95.11
2023-04-18T02:06:26.415Z,94.66
2023-04-18T02:08:31.130Z,95.87
2023-04-18T02:10:34.050Z,96.35
2023-04-18T02:12:36.963Z,95.52
2023-04-18T02:14:41.403Z,96.05
2023-04-18T02:16:44.416Z,94.70
2023-04-18T02:18:47.913Z,96.60
2023-04-18T02:20:51.876Z,95.73
2023-04-18T02:22:55.053Z,95.15
2023-04-18T02:24:58.026Z,94.83
2023-04-18T02:27:01.187Z,96.53
2023-04-18T02:29:04.424Z,95.80
2023-04-18T02:31:14.914Z,95.54
2023-04-18T02:33:17.924Z,94.49
2023-04-18T02:35:21.585Z,95.63
2023-04-18T02:37:24.864Z,95.71
2023-04-18T02:39:27.764Z,96.12
2023-04-18T02:41:31.564Z,96.51
2023-04-18T02:43:35.197Z,96.57
2023-04-18T02:45:39.457Z,95.63
2023-04-18T02:47:54.453Z,96.57
2023-04-18T02:49:58.794Z,95.68
2023-04-18T02:52:03.153Z,94.68
2023-04-18T02:54:06.251Z,95.44
2023-04-18T02:56:24.026Z,95.49
2023-04-18T02:58:59.076Z,95.97
2023-04-18T03:01:21.379Z,96.45
2023-04-18T03:03:33.985Z,95.86
2023-04-18T03:06:15.283Z,94.40
2023-04-18T03:08:18.551Z,95.08
2023-04-18T03:10:21.653Z,96.26
2023-04-18T03:12:25.993Z,94.76
2023-04-18T03:14:29.636Z,95.05
2023-04-18T03:16:32.650Z,95.83
2023-04-18T03:18:37.750Z,96.11
2023-04-18T03:20:41.473Z,95.19
2023-04-18T03:22:44.721Z,95.58
2023-04-18T03:24:48.671Z,94.32
2023-04-18T03:26:53.231Z,95.10
2023-04-18T03:28:59.981Z,96.07
2023-04-18T03:31:03.686Z,95.29
2023-04-18T03:33:09.410Z,95.70
2023-04-18T03:35:13.761Z,94.39
2023-04-18T03:37:17.314Z,95.79
2023-04-18T03:39:26.150Z,96.63
2023-04-18T03:41:30.300Z,95.49
2023-04-18T03:43:33.970Z,95.95
2023-04-18T03:45:37.342Z,96.47
2023-04-18T03:47:41.305Z,95.40
2023-04-18T03:49:44.309Z,94.68
2023-04-18T03:51:49.241Z,96.55
2023-04-18T03:53:52.332Z,95.13
2023-04-18T03:55:55.362Z,96.74
2023-04-18T03:58:02.512Z,95.38
2023-04-18T04:00:08.457Z,96.05
2023-04-18T04:02:18.641Z,94.53
2023-04-18T04:04:22.043Z,94.91
2023-04-18T04:06:26.721Z,96.07
2023-04-18T04:08:31.936Z,95.31
2023-04-18T04:10:34.970Z,95.15
2023-04-18T04:12:37.859Z,94.89
2023-04-18T04:14:40.967Z,96.36
2023-04-18T04:16:46.149Z,95.61
2023-04-18T04:18:52.170Z,94.64
2023-04-18T04:21:00.470Z,95.22
2023-04-18T04:23:15.906Z,95.39
2023-04-18T04:25:24.637Z,95.47
2023-04-18T04:27:29.512Z,94.12
2023-04-18T04:29:33.052Z,94.95
2023-04-18T04:31:36.239Z,95.30
2023-04-18T04:33:39.292Z,95.79
2023-04-18T04:35:48.594Z,95.35
2023-04-18T04:37:52.062Z,94.48
2023-04-18T04:40:01.524Z,94.09
2023-04-18T04:42:26.131Z,94.74
2023-04-18T04:44:37.778Z,95.74
2023-04-18T04:46:41.842Z,95.27
2023-04-18T04:48:50.762Z,93.86
2023-04-18T04:50:56.681Z,93.98
2023-04-18T04:53:00.056Z,95.06
2023-04-18T04:55:03.232Z,95.77
2023-04-18T04:57:06.310Z,94.65
2023-04-18T04:59:11.442Z,94.70
2023-04-18T05:01:20.336Z,95.61
2023-04-18T05:03:23.559Z,94.70
2023-04-18T05:05:26.935Z,95.49
2023-04-18T05:07:29.929Z,94.25
2023-04-18T05:09:32.774Z,94.88
2023-04-18T05:11:35.853Z,93.65
2023-04-18T05:13:38.778Z,94.11
2023-04-18T05:15:44.477Z,92.78
2023-04-18T05:17:47.500Z,92.96
2023-04-18T05:19:50.562Z,92.77
2023-04-18T05:21:53.461Z,92.69
2023-04-18T05:23:56.594Z,93.36
2023-04-18T05:25:59.959Z,92.56
2023-04-18T05:28:04.968Z,93.00
2023-04-18T05:30:08.888Z,93.30
2023-04-18T05:32:13.426Z,93.02
2023-04-18T05:34:16.645Z,92.09
2023-04-18T05:36:19.701Z,92.24
2023-04-18T05:38:22.595Z,93.44
2023-04-18T05:40:25.958Z,92.13
2023-04-18T05:42:28.964Z,93.19
2023-04-18T05:44:31.908Z,91.56
2023-04-18T05:46:35.108Z,92.38
2023-04-18T05:48:39.598Z,93.15
2023-04-18T05:50:42.468Z,92.15
2023-04-18T05:52:45.544Z,90.92
2023-04-18T05:54:48.444Z,92.18
2023-04-18T05:56:51.755Z,92.27
2023-04-18T05:58:54.672Z,92.96
2023-04-18T06:00:57.660Z,92.73
2023-04-18T06:03:00.933Z,92.37
2023-04-18T06:05:06.985Z,90.61
2023-04-18T06:07:10.355Z,90.08
2023-04-18T06:09:13.277Z,91.95
2023-04-18T06:11:16.312Z,90.15
2023-04-18T06:13:19.356Z,90.30
2023-04-18T06:15:22.183Z,89.45
2023-04-18T06:17:25.234Z,90.96
2023-04-18T06:19:28.302Z,90.22
2023-04-18T06:21:32.747Z,90.19
2023-04-18T06:23:35.642Z,89.52
2023-04-18T06:25:38.767Z,89.43
2023-04-18T06:27:41.635Z,89.24
2023-04-18T06:29:44.612Z,90.04
2023-04-18T06:31:48.700Z,88.21
2023-04-18T06:33:51.886Z,87.82
2023-04-18T06:35:54.823Z,89.50
2023-04-18T06:37:59.287Z,89.17
2023-04-18T06:40:02.333Z,88.86
2023-04-18T06:42:05.283Z,88.71
2023-04-18T06:44:08.142Z,87.97
2023-04-18T06:46:11.265Z,88.66
2023-04-18T06:48:14.253Z,87.82
2023-04-18T06:50:17.290Z,88.79
2023-04-18T06:52:20.303Z,88.48
2023-04-18T06:54:24.984Z,88.03
2023-04-18T06:56:27.896Z,88.26
2023-04-18T06:58:31.027Z,86.94
2023-04-18T07:00:33.943Z,87.05
2023-04-18T07:02:38.248Z,88.17
2023-04-18T07:04:41.758Z,88.21
2023-04-18T07:06:45.143Z,87.41
2023-04-18T07:08:48.052Z,87.11
2023-04-18T07:10:52.686Z,85.78
2023-04-18T07:12:55.787Z,86.07
2023-04-18T07:14:58.757Z,86.00
2023-04-18T07:17:02.079Z,84.46
2023-04-18T07:19:05.761Z,84.58
2023-04-18T07:21:08.654Z,85.09
2023-04-18T07:23:12.197Z,84.97
2023-04-18T07:25:15.638Z,83.92
2023-04-18T07:27:20.281Z,82.80
2023-04-18T07:29:23.192Z,81.78
2023-04-18T07:31:28.841Z,84.68
2023-04-18T07:33:34.092Z,83.01
2023-04-18T07:35:37.410Z,81.51
2023-04-18T07:37:40.437Z,80.84
2023-04-18T07:39:43.412Z,80.63
2023-04-18T07:41:46.459Z,80.52
2023-04-18T07:43:50.939Z,79.79
2023-04-18T07:45:54.523Z,80.04
2023-04-18T07:47:57.494Z,76.18
2023-04-18T07:50:00.399Z,77.13
2023-04-18T07:52:03.726Z,77.79
2023-04-18T07:54:06.724Z,75.48
2023-04-18T07:56:09.933Z,75.36
2023-04-18T07:58:12.871Z,76.29
2023-04-18T08:00:18.347Z,76.68
2023-04-18T08:02:21.926Z,77.35
2023-04-18T08:04:27.628Z,74.49
2023-04-18T08:06:32.124Z,74.16
2023-04-18T08:08:35.132Z,75.14
2023-04-18T08:10:38.204Z,75.03
2023-04-18T08:12:41.380Z,74.18
2023-04-18T08:14:44.309Z,71.77
2023-04-18T08:16:50.937Z,74.21
2023-04-18T08:18:54.034Z,71.63
2023-04-18T08:20:57.056Z,74.70
2023-04-18T08:23:06.243Z,73.38
2023-04-18T08:25:11.868Z,71.75
2023-04-18T08:27:14.836Z,72.22
2023-04-18T08:29:17.856Z,69.76
2023-04-18T08:31:21.026Z,71.75
2023-04-18T08:33:25.558Z,70.26
2023-04-18T08:35:28.582Z,66.96
2023-04-18T08:37:32.006Z,68.25
2023-04-18T08:39:35.732Z,69.16
2023-04-18T08:41:40.187Z,65.65
2023-04-18T08:43:48.395Z,66.07
2023-04-18T08:45:53.164Z,67.68
2023-04-18T08:47:58.147Z,65.45
2023-04-18T08:50:02.871Z,64.12
2023-04-18T08:52:11.663Z,67.26
2023-04-18T08:54:15.620Z,65.43
2023-04-18T08:56:22.711Z,68.19
2023-04-18T08:58:27.806Z,66.77
2023-04-18T09:00:30.807Z,65.35
2023-04-18T09:02:43.131Z,68.46
2023-04-18T09:04:49.475Z,68.19
2023-04-18T09:06:54.009Z,66.23
2023-04-18T09:08:59.295Z,66.28
2023-04-18T09:11:26.329Z,65.23
2023-04-18T09:13:47.770Z,66.40
2023-04-18T09:15:56.600Z,63.66
2023-04-18T09:18:00.815Z,62.01
2023-04-18T09:20:10.554Z,64.30
2023-04-18T09:22:16.365Z,63.52
2023-04-18T09:24:24.482Z,64.06
2023-04-18T09:26:36.189Z,61.92
2023-04-18T09:28:40.923Z,61.82
2023-04-18T09:30:44.229Z,61.14
2023-04-18T09:32:59.084Z,64.46
2023-04-18T09:35:05.732Z,63.51
2023-04-18T09:37:10.293Z,60.12
2023-04-18T09:39:28.373Z,62.90
2023-04-18T09:41:33.040Z,62.64
2023-04-18T09:43:35.928Z,62.20
2023-04-18T09:45:39.688Z,60.96
2023-04-18T09:47:44.132Z,59.65
2023-04-18T09:49:47.095Z,57.70
2023-04-18T09:51:52.025Z,56.42
2023-04-18T09:53:55.274Z,55.42
2023-04-18T09:56:00.284Z,55.51
2023-04-18T09:58:04.545Z,56.90
2023-04-18T10:00:24.518Z,56.83
2023-04-18T10:02:35.154Z,56.57
2023-04-18T10:04:38.337Z,55.13
2023-04-18T10:06:43.323Z,57.37
2023-04-18T10:08:48.332Z,55.90
2023-04-18T10:10:51.340Z,56.59
2023-04-18T10:12:58.002Z,54.47
2023-04-18T10:15:01.762Z,55.36
2023-04-18T10:17:04.834Z,56.22
2023-04-18T10:19:25.085Z,53.90
2023-04-18T10:21:29.540Z,55.20
2023-04-18T10:23:37.129Z,56.00
2023-04-18T10:25:50.393Z,56.79
2023-04-18T10:27:59.194Z,54.48
2023-04-18T10:30:02.418Z,55.90
2023-04-18T10:32:07.503Z,54.53
2023-04-18T10:34:17.793Z,52.84
2023-04-18T10:36:21.803Z,52.52
2023-04-18T10:38:24.772Z,52.64
2023-04-18T10:40:33.648Z,52.24
2023-04-18T10:42:59.750Z,55.16
2023-04-18T10:45:18.977Z,55.24
2023-04-18T10:47:22.776Z,52.99
2023-04-18T10:49:28.942Z,52.34
2023-04-18T10:51:33.263Z,50.98
2023-04-18T10:53:36.285Z,53.36
2023-04-18T10:55:46.485Z,50.28
2023-04-18T10:57:50.959Z,52.57
2023-04-18T10:59:55.915Z,52.25
2023-04-18T11:02:05.628Z,53.48
2023-04-18T11:04:14.131Z,50.84
2023-04-18T11:06:17.372Z,51.77
2023-04-18T11:08:24.528Z,48.39
2023-04-18T11:10:28.185Z,48.28
2023-04-18T11:12:36.242Z,49.62
2023-04-18T11:14:43.456Z,48.66
2023-04-18T11:16:47.916Z,50.70
2023-04-18T11:18:51.467Z,51.31
2023-04-18T11:20:54.362Z,51.98
2023-04-18T11:22:58.618Z,53.13
2023-04-18T11:25:07.496Z,51.70
2023-04-18T11:27:11.422Z,55.21
2023-04-18T11:29:14.390Z,49.61
2023-04-18T11:31:17.447Z,48.37
2023-04-18T11:33:22.145Z,49.24
2023-04-18T11:35:25.214Z,48.49
2023-04-18T11:37:28.145Z,50.74
2023-04-18T11:39:34.915Z,48.07
2023-04-18T11:41:37.933Z,48.89
2023-04-18T11:43:43.506Z,47.92
2023-04-18T11:45:52.388Z,49.91
2023-04-18T11:47:58.472Z,48.74
2023-04-18T11:50:04.377Z,51.21
2023-04-18T11:52:13.780Z,48.87
2023-04-18T11:54:40.902Z,47.43
2023-04-18T11:56:48.794Z,47.90
2023-04-18T11:58:51.998Z,48.87
2023-04-18T12:00:55.015Z,49.31
2023-04-18T12:02:59.728Z,50.01
2023-04-18T12:05:05.288Z,49.39
2023-04-18T12:07:08.023Z,45.20
2023-04-18T12:09:14.225Z,45.78
2023-04-18T12:11:21.889Z,45.82
2023-04-18T12:13:26.895Z,49.35
2023-04-18T12:15:30.514Z,46.09
2023-04-18T12:17:33.790Z,44.43
2023-04-18T12:19:36.733Z,44.32
2023-04-18T12:21:57.414Z,43.84
2023-04-18T12:24:00.963Z,44.52
2023-04-18T12:26:05.975Z,41.15
2023-04-18T12:28:15.415Z,43.40
2023-04-18T12:30:22.921Z,43.50
2023-04-18T12:32:25.850Z,44.56
2023-04-18T12:34:29.023Z,45.44
2023-04-18T12:36:31.980Z,45.49
2023-04-18T12:38:36.412Z,46.09
2023-04-18T12:40:41.062Z,43.90
2023-04-18T12:42:44.134Z,45.09
2023-04-18T12:44:47.997Z,42.62
2023-04-18T12:46:51.641Z,43.21
2023-04-18T12:48:54.636Z,43.78
2023-04-18T12:50:57.628Z,44.67
2023-04-18T12:53:02.239Z,43.77
2023-04-18T12:55:08.671Z,43.67
2023-04-18T12:57:11.528Z,45.00
2023-04-18T12:59:14.765Z,45.11
2023-04-18T13:01:18.433Z,45.49
2023-04-18T13:03:21.716Z,44.03
2023-04-18T13:05:28.084Z,43.12
2023-04-18T13:07:33.262Z,43.19
2023-04-18T13:09:36.797Z,41.75
2023-04-18T13:11:41.298Z,43.01
2023-04-18T13:13:44.263Z,44.12
2023-04-18T13:15:47.114Z,42.59
2023-04-18T13:17:51.048Z,42.80
2023-04-18T13:19:54.142Z,44.34
2023-04-18T13:21:57.087Z,44.27
2023-04-18T13:24:01.368Z,42.67
2023-04-18T13:26:04.276Z,42.47
2023-04-18T13:28:08.685Z,43.45
2023-04-18T13:30:12.423Z,40.92
2023-04-18T13:32:15.554Z,42.23
2023-04-18T13:34:18.447Z,41.51
2023-04-18T13:36:21.881Z,41.48
2023-04-18T13:38:25.243Z,43.92
2023-04-18T13:40:28.238Z,43.26
2023-04-18T13:42:31.273Z,42.08
2023-04-18T13:44:37.097Z,42.14
2023-04-18T13:46:39.683Z,42.86
2023-04-18T13:48:42.659Z,44.86
2023-04-18T13:50:45.567Z,43.89
2023-04-18T13:52:49.572Z,43.54
2023-04-18T13:54:52.636Z,46.17
2023-04-18T13:56:58.328Z,45.96
2023-04-18T13:59:00.892Z,45.37
2023-04-18T14:01:05.597Z,45.71
2023-04-18T14:03:08.604Z,48.51
2023-04-18T14:05:11.877Z,48.58
2023-04-18T14:07:14.901Z,47.30
2023-04-18T14:09:18.315Z,46.14
2023-04-18T14:11:21.502Z,45.79
2023-04-18T14:13:24.552Z,48.11
2023-04-18T14:15:27.462Z,49.03
2023-04-18T14:17:31.951Z,49.93
2023-04-18T14:19:35.222Z,49.21
2023-04-18T14:21:38.293Z,50.70
2023-04-18T14:23:41.184Z,51.38
2023-04-18T14:25:44.400Z,52.07
2023-04-18T14:27:48.430Z,51.67
2023-04-18T14:29:51.633Z,50.10
2023-04-18T14:31:54.938Z,51.92
2023-04-18T14:33:59.356Z,50.21
2023-04-18T14:36:02.773Z,49.00
2023-04-18T14:38:05.904Z,49.84
2023-04-18T14:40:10.183Z,48.54
2023-04-18T14:42:13.042Z,52.13
2023-04-18T14:44:15.873Z,51.51
2023-04-18T14:46:19.184Z,52.84
2023-04-18T14:48:22.171Z,52.31
2023-04-18T14:50:27.031Z,51.51
2023-04-18T14:52:29.872Z,51.91
2023-04-18T14:54:32.954Z,51.15
2023-04-18T14:56:35.905Z,50.85
2023-04-18T14:58:38.782Z,49.87
2023-04-18T15:00:42.163Z,50.99
2023-04-18T15:02:45.393Z,51.49
2023-04-18T15:04:48.726Z,49.21
2023-04-18T15:06:53.209Z,48.59
2023-04-18T15:08:57.049Z,48.15
2023-04-18T15:11:00.362Z,48.96
2023-04-18T15:13:03.317Z,48.84
2023-04-18T15:15:07.181Z,50.96
2023-04-18T15:17:10.268Z,51.37
2023-04-18T15:19:13.778Z,53.38
2023-04-18T15:21:16.651Z,52.62
2023-04-18T15:23:21.900Z,53.25
2023-04-18T15:25:26.450Z,51.87
2023-04-18T15:27:29.383Z,52.43
2023-04-18T15:29:32.344Z,53.61
2023-04-18T15:31:36.709Z,53.00
2023-04-18T15:33:41.874Z,51.28
2023-04-18T15:35:44.935Z,51.16
2023-04-18T15:37:47.935Z,50.31
2023-04-18T15:39:52.539Z,51.76
2023-04-18T15:41:55.677Z,52.83
2023-04-18T15:43:58.660Z,52.69
2023-04-18T15:46:01.641Z,54.62
2023-04-18T15:48:04.798Z,54.41
2023-04-18T15:50:09.531Z,54.58
2023-04-18T15:52:14.020Z,54.31
2023-04-18T15:54:17.143Z,55.26
2023-04-18T15:56:21.908Z,54.51
2023-04-18T15:58:28.040Z,54.24
2023-04-18T16:00:31.204Z,55.50
2023-04-18T16:02:34.202Z,54.82
2023-04-18T16:04:37.315Z,55.52
2023-04-18T16:06:40.899Z,54.76
2023-04-18T16:08:44.060Z,56.21
2023-04-18T16:10:48.389Z,56.39
2023-04-18T16:12:53.916Z,56.03
2023-04-18T16:14:56.799Z,55.55
2023-04-18T16:17:00.165Z,56.30
2023-04-18T16:19:04.458Z,57.31
2023-04-18T16:21:07.328Z,58.15
2023-04-18T16:23:10.168Z,58.54
2023-04-18T16:25:13.270Z,59.74
2023-04-18T16:27:16.548Z,59.40
2023-04-18T16:29:21.460Z,61.02
2023-04-18T16:31:24.613Z,60.20
2023-04-18T16:33:27.703Z,60.69
2023-04-18T16:35:30.745Z,61.74
2023-04-18T16:37:33.853Z,61.12
2023-04-18T16:39:37.023Z,62.14
2023-04-18T16:41:40.127Z,61.89
2023-04-18T16:43:43.088Z,62.29
2023-04-18T16:45:47.466Z,62.77
2023-04-18T16:47:50.359Z,62.92
2023-04-18T16:49:53.705Z,64.49
2023-04-18T16:51:56.644Z,64.79
2023-04-18T16:53:59.831Z,64.88
2023-04-18T16:56:03.621Z,64.34
2023-04-18T16:58:06.604Z,64.79
2023-04-18T17:00:10.695Z,64.23
2023-04-18T17:02:15.257Z,65.44
2023-04-18T17:04:18.382Z,65.27
2023-04-18T17:06:22.967Z,65.23
2023-04-18T17:08:28.919Z,66.13
2023-04-18T17:10:32.180Z,66.67
2023-04-18T17:12:35.062Z,65.96
2023-04-18T17:14:38.184Z,65.88
2023-04-18T17:16:42.574Z,65.90
2023-04-18T17:18:47.048Z,66.58
2023-04-18T17:20:50.081Z,65.87
2023-04-18T17:22:53.035Z,67.01
2023-04-18T17:24:55.947Z,65.77
2023-04-18T17:26:58.952Z,66.61
2023-04-18T17:29:03.614Z,67.26
2023-04-18T17:31:07.035Z,67.82
2023-04-18T17:33:10.761Z,67.97
2023-04-18T17:35:15.283Z,68.15
2023-04-18T17:37:18.151Z,67.38
2023-04-18T17:39:21.149Z,68.45
2023-04-18T17:41:24.311Z,68.11
2023-04-18T17:43:27.410Z,68.50
2023-04-18T17:45:30.329Z,68.81
2023-04-18T17:47:33.941Z,68.19
2023-04-18T17:49:36.799Z,68.53
2023-04-18T17:51:41.166Z,68.98
2023-04-18T17:53:44.312Z,69.09
2023-04-18T17:55:49.150Z,69.29
2023-04-18T17:57:52.011Z,70.10
2023-04-18T17:59:55.019Z,69.75
2023-04-18T18:01:58.945Z,70.10
2023-04-18T18:04:02.202Z,70.53
2023-04-18T18:06:05.068Z,70.15
2023-04-18T18:08:09.850Z,71.23
2023-04-18T18:10:12.729Z,69.64
2023-04-18T18:12:15.700Z,69.79
2023-04-18T18:14:18.651Z,70.60
2023-04-18T18:16:22.068Z,72.29
2023-04-18T18:18:25.444Z,71.57
2023-04-18T18:20:28.693Z,71.77
2023-04-18T18:22:31.961Z,71.50
2023-04-18T18:24:36.333Z,72.10
2023-04-18T18:26:39.193Z,72.68
2023-04-18T18:28:42.053Z,71.23
2023-04-18T18:30:45.083Z,71.70
2023-04-18T18:32:48.134Z,71.49
2023-04-18T18:34:51.071Z,71.64
2023-04-18T18:36:54.018Z,72.02
2023-04-18T18:38:57.052Z,70.76
2023-04-18T18:41:03.760Z,70.66
2023-04-18T18:43:06.809Z,71.90
2023-04-18T18:45:10.875Z,71.04
2023-04-18T18:47:13.853Z,70.75
2023-04-18T18:49:16.829Z,70.37
2023-04-18T18:51:19.750Z,71.29
2023-04-18T18:53:22.824Z,71.63
2023-04-18T18:55:25.700Z,71.65
2023-04-18T18:57:30.232Z,71.24
2023-04-18T18:59:33.232Z,71.32
2023-04-18T19:01:36.425Z,71.78
2023-04-18T19:03:39.730Z,71.50
2023-04-18T19:05:42.685Z,72.66
2023-04-18T19:07:45.517Z,72.92
2023-04-18T19:09:48.782Z,73.63
2023-04-18T19:11:51.642Z,73.49
2023-04-18T19:13:56.033Z,73.39
2023-04-18T19:15:59.111Z,73.64
2023-04-18T19:18:02.413Z,73.80
2023-04-18T19:20:06.616Z,73.38
2023-04-18T19:22:09.553Z,73.35
2023-04-18T19:24:12.528Z,73.54
2023-04-18T19:26:15.647Z,73.86
2023-04-18T19:28:18.706Z,73.86
2023-04-18T19:30:23.474Z,73.39
2023-04-18T19:32:27.115Z,73.40
2023-04-18T19:34:30.121Z,73.62
2023-04-18T19:36:32.960Z,73.33
2023-04-18T19:38:36.261Z,73.02
2023-04-18T19:40:39.215Z,73.98
2023-04-18T19:42:42.104Z,74.05
2023-04-18T19:44:44.962Z,73.61
2023-04-18T19:46:49.655Z,73.50
2023-04-18T19:48:52.657Z,73.25
2023-04-18T19:50:57.361Z,73.80
2023-04-18T19:53:00.179Z,73.88
2023-04-18T19:55:03.262Z,73.65
2023-04-18T19:57:06.678Z,74.89
2023-04-18T19:59:09.541Z,74.46
2023-04-18T20:01:12.919Z,74.26
2023-04-18T20:03:17.636Z,74.37
2023-04-18T20:05:20.916Z,74.38
2023-04-18T20:07:26.268Z,74.65
2023-04-18T20:09:29.411Z,74.91
2023-04-18T20:11:32.657Z,75.21
2023-04-18T20:13:37.042Z,74.78
2023-04-18T20:15:40.691Z,75.04
2023-04-18T20:17:43.584Z,74.68
2023-04-18T20:19:49.958Z,74.95
2023-04-18T20:21:52.947Z,75.63
2023-04-18T20:23:56.887Z,75.11
2023-04-18T20:25:59.921Z,75.57
2023-04-18T20:28:03.353Z,75.58
2023-04-18T20:30:07.465Z,76.01
2023-04-18T20:32:12.100Z,75.79
2023-04-18T20:34:15.020Z,75.08
2023-04-18T20:36:20.076Z,76.45
2023-04-18T20:38:26.361Z,76.24
2023-04-18T20:40:29.612Z,75.95
2023-04-18T20:42:32.626Z,76.05
2023-04-18T20:44:36.363Z,76.80
2023-04-18T20:46:39.350Z,76.52
2023-04-18T20:48:44.210Z,76.18
2023-04-18T20:50:51.693Z,77.15
2023-04-18T20:52:56.355Z,77.00
2023-04-18T20:54:59.539Z,77.40
2023-04-18T20:57:02.949Z,77.53
2023-04-18T20:59:06.070Z,77.19
2023-04-18T21:01:09.030Z,77.37
2023-04-18T21:03:14.170Z,78.77
2023-04-18T21:05:17.271Z,78.15
2023-04-18T21:07:20.099Z,78.84
2023-04-18T21:09:24.673Z,79.23
2023-04-18T21:11:27.500Z,78.57
2023-04-18T21:13:31.599Z,78.22
2023-04-18T21:15:35.288Z,79.37
2023-04-18T21:17:38.204Z,78.85
2023-04-18T21:19:41.140Z,80.04
2023-04-18T21:21:44.119Z,80.68
2023-04-18T21:23:47.010Z,80.60
2023-04-18T21:25:51.391Z,80.85
2023-04-18T21:27:54.404Z,81.92
2023-04-18T21:29:57.458Z,82.61
2023-04-18T21:32:00.425Z,82.58
2023-04-18T21:34:04.623Z,82.55
2023-04-18T21:36:07.827Z,82.94
2023-04-18T21:38:10.801Z,83.58
2023-04-18T21:40:14.788Z,84.03
2023-04-18T21:42:19.410Z,84.01
2023-04-18T21:44:22.232Z,83.88
2023-04-18T21:46:26.439Z,84.82
2023-04-18T21:48:29.449Z,85.40
2023-04-18T21:50:32.439Z,85.45
2023-04-18T21:52:35.532Z,85.81
2023-04-18T21:54:40.141Z,86.13
2023-04-18T21:56:43.421Z,85.96
2023-04-18T21:58:48.062Z,87.90
2023-04-18T22:00:51.062Z,87.88
2023-04-18T22:02:54.098Z,88.19
2023-04-18T22:04:57.046Z,88.76
2023-04-18T22:07:00.282Z,87.25
2023-04-18T22:09:03.193Z,87.87
2023-04-18T22:11:06.269Z,88.49
2023-04-18T22:13:09.360Z,87.82
2023-04-18T22:15:13.985Z,87.46
2023-04-18T22:17:16.865Z,87.88
2023-04-18T22:19:20.657Z,89.06
2023-04-18T22:21:23.555Z,88.50
2023-04-18T22:23:27.087Z,89.08
2023-04-18T22:25:30.458Z,89.48
2023-04-18T22:27:33.469Z,88.98
2023-04-18T22:29:36.550Z,88.15
2023-04-18T22:31:41.010Z,88.31
2023-04-18T22:33:43.890Z,87.82
2023-04-18T22:35:47.335Z,88.43
2023-04-18T22:37:50.297Z,88.16
2023-04-18T22:39:53.183Z,87.81
2023-04-18T22:41:55.991Z,88.28
2023-04-18T22:43:58.872Z,87.35
2023-04-18T22:46:03.183Z,87.92
2023-04-18T22:48:11.723Z,88.38
2023-04-18T22:50:15.056Z,87.27
2023-04-18T22:52:18.071Z,87.57
2023-04-18T22:54:21.295Z,86.77
2023-04-18T22:56:24.341Z,87.24
2023-04-18T22:58:27.250Z,87.14
2023-04-18T23:00:30.260Z,87.17
2023-04-18T23:02:33.416Z,87.70
2023-04-18T23:04:38.087Z,87.93
2023-04-18T23:06:41.218Z,86.52
2023-04-18T23:08:44.093Z,88.28
2023-04-18T23:10:47.031Z,87.49
2023-04-18T23:12:49.945Z,87.74
2023-04-18T23:14:52.836Z,87.00
2023-04-18T23:16:55.977Z,87.16
2023-04-18T23:18:58.816Z,87.17
2023-04-18T23:21:03.240Z,86.98
2023-04-18T23:23:06.267Z,86.94
2023-04-18T23:25:09.486Z,86.21
2023-04-18T23:27:12.517Z,86.66
2023-04-18T23:29:15.516Z,86.16
2023-04-18T23:31:18.554Z,86.97
2023-04-18T23:33:21.482Z,86.63
2023-04-18T23:35:24.785Z,85.80
2023-04-18T23:37:29.206Z,86.79
2023-04-18T23:39:32.028Z,85.62
2023-04-18T23:41:35.170Z,86.28
2023-04-18T23:43:37.994Z,85.67
2023-04-18T23:45:41.080Z,86.02
2023-04-18T23:47:44.077Z,85.76
2023-04-18T23:49:47.023Z,85.74
2023-04-18T23:51:49.876Z,86.00
2023-04-18T23:53:54.487Z,85.63
2023-04-18T23:55:57.301Z,85.40
2023-04-18T23:58:00.187Z,85.43
